sensor_id;sensor_type;location;lat;lon;timestamp;temperature;humidity
76897;SHT30;65856;52.178;21.176;2023-07-16T00:01:46;22.73;61.29
76897;SHT30;65856;52.178;21.176;2023-07-16T00:04:11;22.69;61.27
76897;SHT30;65856;52.178;21.176;2023-07-16T00:06:37;22.67;60.81
76897;SHT30;65856;52.178;21.176;2023-07-16T00:09:02;22.71;60.43
76897;SHT30;65856;52.178;21.176;2023-07-16T00:11:28;22.73;60.64
76897;SHT30;65856;52.178;21.176;2023-07-16T00:13:53;22.73;61.10
76897;SHT30;65856;52.178;21.176;2023-07-16T00:16:20;22.71;61.57
76897;SHT30;65856;52.178;21.176;2023-07-16T00:18:46;22.66;61.67
76897;SHT30;65856;52.178;21.176;2023-07-16T00:21:12;22.61;61.63
76897;SHT30;65856;52.178;21.176;2023-07-16T00:23:37;22.55;61.77
76897;SHT30;65856;52.178;21.176;2023-07-16T00:26:03;22.52;62.00
76897;SHT30;65856;52.178;21.176;2023-07-16T00:28:29;22.48;62.18
76897;SHT30;65856;52.178;21.176;2023-07-16T00:30:55;22.45;62.28
76897;SHT30;65856;52.178;21.176;2023-07-16T00:33:20;22.42;62.35
76897;SHT30;65856;52.178;21.176;2023-07-16T00:35:49;22.37;62.47
76897;SHT30;65856;52.178;21.176;2023-07-16T00:38:18;22.33;62.47
76897;SHT30;65856;52.178;21.176;2023-07-16T00:40:45;22.28;62.50
76897;SHT30;65856;52.178;21.176;2023-07-16T00:43:12;22.24;62.64
76897;SHT30;65856;52.178;21.176;2023-07-16T00:45:38;22.19;62.88
76897;SHT30;65856;52.178;21.176;2023-07-16T00:48:05;22.14;63.05
76897;SHT30;65856;52.178;21.176;2023-07-16T00:50:33;22.09;63.13
76897;SHT30;65856;52.178;21.176;2023-07-16T00:53:07;22.03;63.10
76897;SHT30;65856;52.178;21.176;2023-07-16T00:55:35;21.98;63.18
76897;SHT30;65856;52.178;21.176;2023-07-16T00:58:06;21.96;62.93
76897;SHT30;65856;52.178;21.176;2023-07-16T01:00:33;21.98;62.81
76897;SHT30;65856;52.178;21.176;2023-07-16T01:03:01;21.99;62.89
76897;SHT30;65856;52.178;21.176;2023-07-16T01:05:34;21.98;63.40
76897;SHT30;65856;52.178;21.176;2023-07-16T01:08:10;21.95;63.62
76897;SHT30;65856;52.178;21.176;2023-07-16T01:10:38;21.89;63.69
76897;SHT30;65856;52.178;21.176;2023-07-16T01:13:04;21.86;63.89
76897;SHT30;65856;52.178;21.176;2023-07-16T01:15:30;21.83;63.90
76897;SHT30;65856;52.178;21.176;2023-07-16T01:17:56;21.76;63.84
76897;SHT30;65856;52.178;21.176;2023-07-16T01:20:21;21.76;63.50
76897;SHT30;65856;52.178;21.176;2023-07-16T01:22:54;21.83;63.28
76897;SHT30;65856;52.178;21.176;2023-07-16T01:26:02;21.86;63.13
76897;SHT30;65856;52.178;21.176;2023-07-16T01:32:07;21.83;63.11
76897;SHT30;65856;52.178;21.176;2023-07-16T01:34:36;21.83;63.10
76897;SHT30;65856;52.178;21.176;2023-07-16T01:37:03;21.86;63.16
76897;SHT30;65856;52.178;21.176;2023-07-16T01:39:30;21.89;63.31
76897;SHT30;65856;52.178;21.176;2023-07-16T01:41:59;21.90;63.28
76897;SHT30;65856;52.178;21.176;2023-07-16T01:44:26;21.90;63.02
76897;SHT30;65856;52.178;21.176;2023-07-16T01:49:44;21.86;62.90
76897;SHT30;65856;52.178;21.176;2023-07-16T01:52:09;21.85;62.90
76897;SHT30;65856;52.178;21.176;2023-07-16T01:54:35;21.81;62.89
76897;SHT30;65856;52.178;21.176;2023-07-16T01:57:01;21.79;62.87
76897;SHT30;65856;52.178;21.176;2023-07-16T01:59:27;21.80;62.85
76897;SHT30;65856;52.178;21.176;2023-07-16T02:01:53;21.83;63.11
76897;SHT30;65856;52.178;21.176;2023-07-16T02:04:18;21.81;63.66
76897;SHT30;65856;52.178;21.176;2023-07-16T02:06:45;21.78;63.85
76897;SHT30;65856;52.178;21.176;2023-07-16T02:09:13;21.76;63.38
76897;SHT30;65856;52.178;21.176;2023-07-16T02:11:39;21.77;63.20
76897;SHT30;65856;52.178;21.176;2023-07-16T02:14:05;21.75;63.20
76897;SHT30;65856;52.178;21.176;2023-07-16T02:16:30;21.74;63.19
76897;SHT30;65856;52.178;21.176;2023-07-16T02:18:56;21.75;63.21
76897;SHT30;65856;52.178;21.176;2023-07-16T02:21:21;21.72;63.26
76897;SHT30;65856;52.178;21.176;2023-07-16T02:23:46;21.72;63.31
76897;SHT30;65856;52.178;21.176;2023-07-16T02:26:12;21.70;63.32
76897;SHT30;65856;52.178;21.176;2023-07-16T02:28:37;21.70;63.41
76897;SHT30;65856;52.178;21.176;2023-07-16T02:31:03;21.70;63.44
76897;SHT30;65856;52.178;21.176;2023-07-16T02:33:28;21.68;63.54
76897;SHT30;65856;52.178;21.176;2023-07-16T02:35:54;21.65;63.59
76897;SHT30;65856;52.178;21.176;2023-07-16T02:38:19;21.67;63.73
76897;SHT30;65856;52.178;21.176;2023-07-16T02:40:45;21.67;63.73
76897;SHT30;65856;52.178;21.176;2023-07-16T02:43:13;21.67;63.74
76897;SHT30;65856;52.178;21.176;2023-07-16T02:45:40;21.66;63.84
76897;SHT30;65856;52.178;21.176;2023-07-16T02:48:06;21.63;63.99
76897;SHT30;65856;52.178;21.176;2023-07-16T02:50:36;21.60;64.14
76897;SHT30;65856;52.178;21.176;2023-07-16T02:53:06;21.57;64.24
76897;SHT30;65856;52.178;21.176;2023-07-16T02:55:34;21.59;64.28
76897;SHT30;65856;52.178;21.176;2023-07-16T02:58:00;21.59;64.36
76897;SHT30;65856;52.178;21.176;2023-07-16T03:00:29;21.57;64.49
76897;SHT30;65856;52.178;21.176;2023-07-16T03:02:56;21.56;64.63
76897;SHT30;65856;52.178;21.176;2023-07-16T03:05:26;21.53;64.83
76897;SHT30;65856;52.178;21.176;2023-07-16T03:07:53;21.51;64.90
76897;SHT30;65856;52.178;21.176;2023-07-16T03:10:20;21.53;65.00
76897;SHT30;65856;52.178;21.176;2023-07-16T03:12:47;21.56;65.04
76897;SHT30;65856;52.178;21.176;2023-07-16T03:15:13;21.57;65.11
76897;SHT30;65856;52.178;21.176;2023-07-16T03:17:38;21.56;65.19
76897;SHT30;65856;52.178;21.176;2023-07-16T03:20:04;21.59;65.22
76897;SHT30;65856;52.178;21.176;2023-07-16T03:22:31;21.61;65.33
76897;SHT30;65856;52.178;21.176;2023-07-16T03:24:57;21.63;65.39
76897;SHT30;65856;52.178;21.176;2023-07-16T03:27:22;21.67;65.41
76897;SHT30;65856;52.178;21.176;2023-07-16T03:29:48;21.82;65.31
76897;SHT30;65856;52.178;21.176;2023-07-16T03:32:13;21.92;65.52
76897;SHT30;65856;52.178;21.176;2023-07-16T03:34:39;22.00;65.52
76897;SHT30;65856;52.178;21.176;2023-07-16T03:37:04;22.04;65.32
76897;SHT30;65856;52.178;21.176;2023-07-16T03:39:30;22.07;65.33
76897;SHT30;65856;52.178;21.176;2023-07-16T03:41:56;22.13;65.52
76897;SHT30;65856;52.178;21.176;2023-07-16T03:44:21;22.37;65.16
76897;SHT30;65856;52.178;21.176;2023-07-16T03:46:47;22.66;64.78
76897;SHT30;65856;52.178;21.176;2023-07-16T03:49:12;23.07;64.37
76897;SHT30;65856;52.178;21.176;2023-07-16T03:51:38;23.83;63.24
76897;SHT30;65856;52.178;21.176;2023-07-16T03:54:03;24.56;61.84
76897;SHT30;65856;52.178;21.176;2023-07-16T03:56:30;24.90;61.27
76897;SHT30;65856;52.178;21.176;2023-07-16T03:58:55;25.35;60.65
76897;SHT30;65856;52.178;21.176;2023-07-16T04:01:20;26.11;58.90
76897;SHT30;65856;52.178;21.176;2023-07-16T04:03:47;26.71;57.69
76897;SHT30;65856;52.178;21.176;2023-07-16T04:06:13;26.96;56.70
76897;SHT30;65856;52.178;21.176;2023-07-16T04:08:39;26.86;56.39
76897;SHT30;65856;52.178;21.176;2023-07-16T04:11:05;26.70;56.54
76897;SHT30;65856;52.178;21.176;2023-07-16T04:13:31;26.61;56.39
76897;SHT30;65856;52.178;21.176;2023-07-16T04:15:57;26.47;56.38
76897;SHT30;65856;52.178;21.176;2023-07-16T04:18:24;26.40;56.58
76897;SHT30;65856;52.178;21.176;2023-07-16T04:20:50;26.41;56.52
76897;SHT30;65856;52.178;21.176;2023-07-16T04:23:16;26.45;56.49
76897;SHT30;65856;52.178;21.176;2023-07-16T04:25:42;26.50;56.34
76897;SHT30;65856;52.178;21.176;2023-07-16T04:28:08;26.54;56.22
76897;SHT30;65856;52.178;21.176;2023-07-16T04:30:36;26.55;56.20
76897;SHT30;65856;52.178;21.176;2023-07-16T04:33:05;26.61;56.10
76897;SHT30;65856;52.178;21.176;2023-07-16T04:35:31;26.69;55.92
76897;SHT30;65856;52.178;21.176;2023-07-16T04:37:58;26.76;55.86
76897;SHT30;65856;52.178;21.176;2023-07-16T04:40:24;26.84;55.66
76897;SHT30;65856;52.178;21.176;2023-07-16T04:42:49;26.92;55.41
76897;SHT30;65856;52.178;21.176;2023-07-16T04:45:15;26.99;55.36
76897;SHT30;65856;52.178;21.176;2023-07-16T04:47:40;27.07;55.10
76897;SHT30;65856;52.178;21.176;2023-07-16T04:50:06;27.18;54.96
76897;SHT30;65856;52.178;21.176;2023-07-16T04:52:32;27.30;54.84
76897;SHT30;65856;52.178;21.176;2023-07-16T04:54:57;27.43;54.71
76897;SHT30;65856;52.178;21.176;2023-07-16T04:57:23;27.58;54.30
76897;SHT30;65856;52.178;21.176;2023-07-16T04:59:48;27.71;54.24
76897;SHT30;65856;52.178;21.176;2023-07-16T05:02:14;27.87;53.85
76897;SHT30;65856;52.178;21.176;2023-07-16T05:04:42;27.96;53.49
76897;SHT30;65856;52.178;21.176;2023-07-16T05:07:09;28.10;53.43
76897;SHT30;65856;52.178;21.176;2023-07-16T05:09:35;28.21;53.07
76897;SHT30;65856;52.178;21.176;2023-07-16T05:12:01;28.37;53.05
76897;SHT30;65856;52.178;21.176;2023-07-16T05:14:28;28.54;52.59
76897;SHT30;65856;52.178;21.176;2023-07-16T05:16:54;28.66;52.52
76897;SHT30;65856;52.178;21.176;2023-07-16T05:19:21;28.78;52.14
76897;SHT30;65856;52.178;21.176;2023-07-16T05:21:47;28.94;51.79
76897;SHT30;65856;52.178;21.176;2023-07-16T05:24:13;29.08;51.50
76897;SHT30;65856;52.178;21.176;2023-07-16T05:26:38;29.22;51.39
76897;SHT30;65856;52.178;21.176;2023-07-16T05:29:04;29.36;51.24
76897;SHT30;65856;52.178;21.176;2023-07-16T05:31:30;29.48;50.91
76897;SHT30;65856;52.178;21.176;2023-07-16T05:33:55;29.58;50.77
76897;SHT30;65856;52.178;21.176;2023-07-16T05:36:21;29.71;50.79
76897;SHT30;65856;52.178;21.176;2023-07-16T05:38:47;29.84;50.31
76897;SHT30;65856;52.178;21.176;2023-07-16T05:41:12;29.94;49.89
76897;SHT30;65856;52.178;21.176;2023-07-16T05:43:38;30.02;49.68
76897;SHT30;65856;52.178;21.176;2023-07-16T05:46:03;30.11;49.52
76897;SHT30;65856;52.178;21.176;2023-07-16T05:48:30;30.23;49.35
76897;SHT30;65856;52.178;21.176;2023-07-16T05:50:57;30.40;49.13
76897;SHT30;65856;52.178;21.176;2023-07-16T05:53:22;30.54;49.14
76897;SHT30;65856;52.178;21.176;2023-07-16T05:55:48;30.69;49.24
76897;SHT30;65856;52.178;21.176;2023-07-16T05:58:17;30.90;48.94
76897;SHT30;65856;52.178;21.176;2023-07-16T06:00:42;31.10;48.42
76897;SHT30;65856;52.178;21.176;2023-07-16T06:03:08;31.24;47.84
76897;SHT30;65856;52.178;21.176;2023-07-16T06:05:33;31.37;47.33
76897;SHT30;65856;52.178;21.176;2023-07-16T06:08:00;31.45;46.99
76897;SHT30;65856;52.178;21.176;2023-07-16T06:10:26;31.52;46.81
76897;SHT30;65856;52.178;21.176;2023-07-16T06:12:52;31.55;46.69
76897;SHT30;65856;52.178;21.176;2023-07-16T06:15:17;31.63;46.43
76897;SHT30;65856;52.178;21.176;2023-07-16T06:17:43;31.71;46.27
76897;SHT30;65856;52.178;21.176;2023-07-16T06:20:09;31.79;45.87
76897;SHT30;65856;52.178;21.176;2023-07-16T06:22:35;31.84;45.53
76897;SHT30;65856;52.178;21.176;2023-07-16T06:25:00;31.86;45.67
76897;SHT30;65856;52.178;21.176;2023-07-16T06:27:26;31.98;45.78
76897;SHT30;65856;52.178;21.176;2023-07-16T06:29:51;32.13;45.76
76897;SHT30;65856;52.178;21.176;2023-07-16T06:32:17;32.28;45.44
76897;SHT30;65856;52.178;21.176;2023-07-16T06:34:43;32.40;45.24
76897;SHT30;65856;52.178;21.176;2023-07-16T06:37:08;32.51;45.24
76897;SHT30;65856;52.178;21.176;2023-07-16T06:39:34;32.62;45.00
76897;SHT30;65856;52.178;21.176;2023-07-16T06:42:00;32.69;44.39
76897;SHT30;65856;52.178;21.176;2023-07-16T06:44:26;32.70;44.36
76897;SHT30;65856;52.178;21.176;2023-07-16T06:46:52;32.80;44.21
76897;SHT30;65856;52.178;21.176;2023-07-16T06:49:18;32.91;43.82
76897;SHT30;65856;52.178;21.176;2023-07-16T06:51:44;33.03;43.59
76897;SHT30;65856;52.178;21.176;2023-07-16T06:54:09;33.14;43.36
76897;SHT30;65856;52.178;21.176;2023-07-16T06:56:35;33.26;43.65
76897;SHT30;65856;52.178;21.176;2023-07-16T06:59:00;33.43;43.67
76897;SHT30;65856;52.178;21.176;2023-07-16T07:01:26;33.65;43.18
76897;SHT30;65856;52.178;21.176;2023-07-16T07:03:53;33.82;42.71
76897;SHT30;65856;52.178;21.176;2023-07-16T07:06:19;33.91;42.03
76897;SHT30;65856;52.178;21.176;2023-07-16T07:08:46;33.96;41.96
76897;SHT30;65856;52.178;21.176;2023-07-16T07:11:12;34.08;41.87
76897;SHT30;65856;52.178;21.176;2023-07-16T07:13:38;34.22;41.82
76897;SHT30;65856;52.178;21.176;2023-07-16T07:16:04;34.33;41.72
76897;SHT30;65856;52.178;21.176;2023-07-16T07:18:30;34.54;41.85
76897;SHT30;65856;52.178;21.176;2023-07-16T07:20:56;34.69;41.21
76897;SHT30;65856;52.178;21.176;2023-07-16T07:23:21;34.75;41.34
76897;SHT30;65856;52.178;21.176;2023-07-16T07:25:50;34.84;41.88
76897;SHT30;65856;52.178;21.176;2023-07-16T07:28:18;34.95;41.84
76897;SHT30;65856;52.178;21.176;2023-07-16T07:30:45;35.02;41.23
76897;SHT30;65856;52.178;21.176;2023-07-16T07:33:11;35.02;41.26
76897;SHT30;65856;52.178;21.176;2023-07-16T07:35:37;35.15;41.28
76897;SHT30;65856;52.178;21.176;2023-07-16T07:38:03;35.29;41.18
76897;SHT30;65856;52.178;21.176;2023-07-16T07:40:29;35.38;40.47
76897;SHT30;65856;52.178;21.176;2023-07-16T07:42:55;35.37;40.35
76897;SHT30;65856;52.178;21.176;2023-07-16T07:45:20;35.51;40.86
76897;SHT30;65856;52.178;21.176;2023-07-16T07:47:46;35.62;40.04
76897;SHT30;65856;52.178;21.176;2023-07-16T07:50:11;35.51;40.18
76897;SHT30;65856;52.178;21.176;2023-07-16T07:52:37;35.36;40.36
76897;SHT30;65856;52.178;21.176;2023-07-16T07:55:02;35.40;40.69
76897;SHT30;65856;52.178;21.176;2023-07-16T07:57:29;35.44;40.49
76897;SHT30;65856;52.178;21.176;2023-07-16T07:59:55;35.47;40.65
76897;SHT30;65856;52.178;21.176;2023-07-16T08:02:24;35.52;40.53
76897;SHT30;65856;52.178;21.176;2023-07-16T08:04:53;35.57;40.60
76897;SHT30;65856;52.178;21.176;2023-07-16T08:07:20;35.73;40.84
76897;SHT30;65856;52.178;21.176;2023-07-16T08:09:47;35.98;40.19
76897;SHT30;65856;52.178;21.176;2023-07-16T08:12:12;36.17;39.28
76897;SHT30;65856;52.178;21.176;2023-07-16T08:14:39;36.29;39.10
76897;SHT30;65856;52.178;21.176;2023-07-16T08:17:06;36.39;38.96
76897;SHT30;65856;52.178;21.176;2023-07-16T08:19:32;36.46;38.80
76897;SHT30;65856;52.178;21.176;2023-07-16T08:21:58;36.56;38.78
76897;SHT30;65856;52.178;21.176;2023-07-16T08:24:24;36.65;38.46
76897;SHT30;65856;52.178;21.176;2023-07-16T08:26:51;36.79;38.27
76897;SHT30;65856;52.178;21.176;2023-07-16T08:29:16;36.98;37.56
76897;SHT30;65856;52.178;21.176;2023-07-16T08:31:42;37.03;37.44
76897;SHT30;65856;52.178;21.176;2023-07-16T08:34:07;37.08;37.26
76897;SHT30;65856;52.178;21.176;2023-07-16T08:36:33;37.14;37.41
76897;SHT30;65856;52.178;21.176;2023-07-16T08:38:59;37.25;36.77
76897;SHT30;65856;52.178;21.176;2023-07-16T08:41:24;37.39;36.66
76897;SHT30;65856;52.178;21.176;2023-07-16T08:43:51;37.45;36.81
76897;SHT30;65856;52.178;21.176;2023-07-16T08:46:17;37.53;36.25
76897;SHT30;65856;52.178;21.176;2023-07-16T08:48:43;37.58;36.50
76897;SHT30;65856;52.178;21.176;2023-07-16T08:51:10;37.72;36.51
76897;SHT30;65856;52.178;21.176;2023-07-16T08:53:41;37.85;36.18
76897;SHT30;65856;52.178;21.176;2023-07-16T08:56:07;37.89;35.09
76897;SHT30;65856;52.178;21.176;2023-07-16T08:58:33;37.88;34.89
76897;SHT30;65856;52.178;21.176;2023-07-16T09:00:59;37.96;34.91
76897;SHT30;65856;52.178;21.176;2023-07-16T09:03:26;38.01;34.66
76897;SHT30;65856;52.178;21.176;2023-07-16T09:05:52;37.95;34.90
76897;SHT30;65856;52.178;21.176;2023-07-16T09:08:19;38.05;34.92
76897;SHT30;65856;52.178;21.176;2023-07-16T09:10:52;38.13;34.48
76897;SHT30;65856;52.178;21.176;2023-07-16T09:13:22;38.20;34.47
76897;SHT30;65856;52.178;21.176;2023-07-16T09:15:54;38.43;34.30
76897;SHT30;65856;52.178;21.176;2023-07-16T09:18:25;38.59;33.01
76897;SHT30;65856;52.178;21.176;2023-07-16T09:20:55;38.58;32.17
76897;SHT30;65856;52.178;21.176;2023-07-16T09:23:29;38.54;32.58
76897;SHT30;65856;52.178;21.176;2023-07-16T09:25:56;38.68;32.48
76897;SHT30;65856;52.178;21.176;2023-07-16T09:28:22;38.82;32.10
76897;SHT30;65856;52.178;21.176;2023-07-16T09:30:48;38.92;31.77
76897;SHT30;65856;52.178;21.176;2023-07-16T09:33:17;38.93;31.86
76897;SHT30;65856;52.178;21.176;2023-07-16T09:35:49;39.01;31.90
76897;SHT30;65856;52.178;21.176;2023-07-16T09:38:16;39.01;31.86
76897;SHT30;65856;52.178;21.176;2023-07-16T09:40:43;39.01;31.69
76897;SHT30;65856;52.178;21.176;2023-07-16T09:43:09;39.04;32.06
76897;SHT30;65856;52.178;21.176;2023-07-16T09:45:39;39.13;31.60
76897;SHT30;65856;52.178;21.176;2023-07-16T09:48:06;39.16;31.41
76897;SHT30;65856;52.178;21.176;2023-07-16T09:50:33;39.16;30.96
76897;SHT30;65856;52.178;21.176;2023-07-16T09:53:00;39.07;30.82
76897;SHT30;65856;52.178;21.176;2023-07-16T09:55:33;39.06;30.99
76897;SHT30;65856;52.178;21.176;2023-07-16T09:58:04;38.99;30.88
76897;SHT30;65856;52.178;21.176;2023-07-16T10:00:36;38.92;31.49
76897;SHT30;65856;52.178;21.176;2023-07-16T10:03:05;38.99;31.50
76897;SHT30;65856;52.178;21.176;2023-07-16T10:05:35;39.07;31.30
76897;SHT30;65856;52.178;21.176;2023-07-16T10:08:02;39.10;31.33
76897;SHT30;65856;52.178;21.176;2023-07-16T10:10:48;39.11;31.40
76897;SHT30;65856;52.178;21.176;2023-07-16T10:13:22;39.18;31.36
76897;SHT30;65856;52.178;21.176;2023-07-16T10:15:53;39.23;31.15
76897;SHT30;65856;52.178;21.176;2023-07-16T10:18:28;39.13;31.22
76897;SHT30;65856;52.178;21.176;2023-07-16T10:21:00;39.15;31.38
76897;SHT30;65856;52.178;21.176;2023-07-16T10:23:36;39.18;31.30
76897;SHT30;65856;52.178;21.176;2023-07-16T10:26:09;39.20;30.67
76897;SHT30;65856;52.178;21.176;2023-07-16T10:28:40;39.16;30.90
76897;SHT30;65856;52.178;21.176;2023-07-16T10:31:06;39.21;31.11
76897;SHT30;65856;52.178;21.176;2023-07-16T10:33:55;39.23;30.87
76897;SHT30;65856;52.178;21.176;2023-07-16T10:36:29;39.15;30.81
76897;SHT30;65856;52.178;21.176;2023-07-16T10:39:04;39.04;30.85
76897;SHT30;65856;52.178;21.176;2023-07-16T10:41:30;38.94;30.81
76897;SHT30;65856;52.178;21.176;2023-07-16T10:43:58;38.68;30.80
76897;SHT30;65856;52.178;21.176;2023-07-16T10:46:24;38.47;31.03
76897;SHT30;65856;52.178;21.176;2023-07-16T10:48:49;38.22;31.16
76897;SHT30;65856;52.178;21.176;2023-07-16T10:51:15;38.05;31.51
76897;SHT30;65856;52.178;21.176;2023-07-16T10:53:44;37.91;31.91
76897;SHT30;65856;52.178;21.176;2023-07-16T10:56:09;37.82;32.38
76897;SHT30;65856;52.178;21.176;2023-07-16T10:58:38;37.76;32.68
76897;SHT30;65856;52.178;21.176;2023-07-16T11:01:07;37.72;32.56
76897;SHT30;65856;52.178;21.176;2023-07-16T11:03:34;37.64;32.58
76897;SHT30;65856;52.178;21.176;2023-07-16T11:06:05;37.62;32.76
76897;SHT30;65856;52.178;21.176;2023-07-16T11:08:33;37.58;32.94
76897;SHT30;65856;52.178;21.176;2023-07-16T11:10:59;37.51;33.36
76897;SHT30;65856;52.178;21.176;2023-07-16T11:13:25;37.47;33.82
76897;SHT30;65856;52.178;21.176;2023-07-16T11:15:53;37.41;34.25
76897;SHT30;65856;52.178;21.176;2023-07-16T11:18:21;37.35;34.52
76897;SHT30;65856;52.178;21.176;2023-07-16T11:20:51;37.28;34.65
76897;SHT30;65856;52.178;21.176;2023-07-16T11:23:18;37.33;34.96
76897;SHT30;65856;52.178;21.176;2023-07-16T11:25:48;37.45;35.25
76897;SHT30;65856;52.178;21.176;2023-07-16T11:28:14;37.49;35.32
76897;SHT30;65856;52.178;21.176;2023-07-16T11:30:40;37.47;35.22
76897;SHT30;65856;52.178;21.176;2023-07-16T11:33:10;37.41;35.29
76897;SHT30;65856;52.178;21.176;2023-07-16T11:35:37;37.29;35.50
76897;SHT30;65856;52.178;21.176;2023-07-16T11:38:07;37.11;35.48
76897;SHT30;65856;52.178;21.176;2023-07-16T11:40:36;36.98;35.88
76897;SHT30;65856;52.178;21.176;2023-07-16T11:43:08;36.86;36.14
76897;SHT30;65856;52.178;21.176;2023-07-16T11:45:36;36.76;36.79
76897;SHT30;65856;52.178;21.176;2023-07-16T11:48:03;36.78;36.90
76897;SHT30;65856;52.178;21.176;2023-07-16T11:50:29;36.80;36.97
76897;SHT30;65856;52.178;21.176;2023-07-16T11:52:58;36.85;37.02
76897;SHT30;65856;52.178;21.176;2023-07-16T11:55:29;36.92;36.85
76897;SHT30;65856;52.178;21.176;2023-07-16T11:57:54;36.95;36.69
76897;SHT30;65856;52.178;21.176;2023-07-16T12:00:22;36.95;36.40
76897;SHT30;65856;52.178;21.176;2023-07-16T12:02:48;36.86;36.40
76897;SHT30;65856;52.178;21.176;2023-07-16T12:05:17;36.78;36.43
76897;SHT30;65856;52.178;21.176;2023-07-16T12:07:44;36.70;36.51
76897;SHT30;65856;52.178;21.176;2023-07-16T12:10:10;36.64;36.53
76897;SHT30;65856;52.178;21.176;2023-07-16T12:12:35;36.58;36.76
76897;SHT30;65856;52.178;21.176;2023-07-16T12:15:03;36.58;37.18
76897;SHT30;65856;52.178;21.176;2023-07-16T12:17:30;36.54;37.12
76897;SHT30;65856;52.178;21.176;2023-07-16T12:19:56;36.56;37.24
76897;SHT30;65856;52.178;21.176;2023-07-16T12:22:21;36.57;37.17
76897;SHT30;65856;52.178;21.176;2023-07-16T12:24:49;36.60;37.31
76897;SHT30;65856;52.178;21.176;2023-07-16T12:27:15;36.62;37.14
76897;SHT30;65856;52.178;21.176;2023-07-16T12:29:41;36.58;37.15
76897;SHT30;65856;52.178;21.176;2023-07-16T12:32:08;36.53;37.26
76897;SHT30;65856;52.178;21.176;2023-07-16T12:34:34;36.48;37.27
76897;SHT30;65856;52.178;21.176;2023-07-16T12:37:00;36.46;37.43
76897;SHT30;65856;52.178;21.176;2023-07-16T12:39:26;36.44;37.56
76897;SHT30;65856;52.178;21.176;2023-07-16T12:41:51;36.44;37.60
76897;SHT30;65856;52.178;21.176;2023-07-16T12:44:17;36.46;37.62
76897;SHT30;65856;52.178;21.176;2023-07-16T12:46:42;36.40;37.35
76897;SHT30;65856;52.178;21.176;2023-07-16T12:49:08;36.33;37.51
76897;SHT30;65856;52.178;21.176;2023-07-16T12:51:33;36.29;37.42
76897;SHT30;65856;52.178;21.176;2023-07-16T12:53:58;36.24;37.62
76897;SHT30;65856;52.178;21.176;2023-07-16T12:56:25;36.24;37.59
76897;SHT30;65856;52.178;21.176;2023-07-16T12:58:52;36.24;37.41
76897;SHT30;65856;52.178;21.176;2023-07-16T13:01:17;36.21;37.55
76897;SHT30;65856;52.178;21.176;2023-07-16T13:03:43;36.17;37.13
76897;SHT30;65856;52.178;21.176;2023-07-16T13:06:10;36.09;37.22
76897;SHT30;65856;52.178;21.176;2023-07-16T13:08:36;36.04;37.34
76897;SHT30;65856;52.178;21.176;2023-07-16T13:11:01;35.98;37.09
76897;SHT30;65856;52.178;21.176;2023-07-16T13:13:28;35.99;37.23
76897;SHT30;65856;52.178;21.176;2023-07-16T13:15:53;35.99;36.91
76897;SHT30;65856;52.178;21.176;2023-07-16T13:18:20;35.96;36.87
76897;SHT30;65856;52.178;21.176;2023-07-16T13:20:46;35.93;36.94
76897;SHT30;65856;52.178;21.176;2023-07-16T13:23:12;35.91;36.94
76897;SHT30;65856;52.178;21.176;2023-07-16T13:25:38;35.89;36.87
76897;SHT30;65856;52.178;21.176;2023-07-16T13:28:04;35.85;36.79
76897;SHT30;65856;52.178;21.176;2023-07-16T13:30:31;35.80;36.65
76897;SHT30;65856;52.178;21.176;2023-07-16T13:32:57;35.81;36.76
76897;SHT30;65856;52.178;21.176;2023-07-16T13:35:23;35.77;36.74
76897;SHT30;65856;52.178;21.176;2023-07-16T13:37:49;35.72;36.59
76897;SHT30;65856;52.178;21.176;2023-07-16T13:40:15;35.65;36.61
76897;SHT30;65856;52.178;21.176;2023-07-16T13:42:44;35.63;36.71
76897;SHT30;65856;52.178;21.176;2023-07-16T13:45:12;35.62;36.92
76897;SHT30;65856;52.178;21.176;2023-07-16T13:47:37;35.58;36.38
76897;SHT30;65856;52.178;21.176;2023-07-16T13:50:03;35.49;36.09
76897;SHT30;65856;52.178;21.176;2023-07-16T13:52:29;35.40;35.96
76897;SHT30;65856;52.178;21.176;2023-07-16T13:54:55;35.34;35.90
76897;SHT30;65856;52.178;21.176;2023-07-16T13:57:20;35.30;36.16
76897;SHT30;65856;52.178;21.176;2023-07-16T13:59:46;35.24;36.06
76897;SHT30;65856;52.178;21.176;2023-07-16T14:02:12;35.18;35.98
76897;SHT30;65856;52.178;21.176;2023-07-16T14:04:37;35.11;35.98
76897;SHT30;65856;52.178;21.176;2023-07-16T14:07:03;35.04;36.05
76897;SHT30;65856;52.178;21.176;2023-07-16T14:09:29;34.98;36.46
76897;SHT30;65856;52.178;21.176;2023-07-16T14:11:55;34.98;36.51
76897;SHT30;65856;52.178;21.176;2023-07-16T14:14:21;34.97;36.53
76897;SHT30;65856;52.178;21.176;2023-07-16T14:16:47;34.93;36.38
76897;SHT30;65856;52.178;21.176;2023-07-16T14:19:13;34.86;36.24
76897;SHT30;65856;52.178;21.176;2023-07-16T14:21:39;34.79;36.01
76897;SHT30;65856;52.178;21.176;2023-07-16T14:24:06;34.71;36.13
76897;SHT30;65856;52.178;21.176;2023-07-16T14:26:32;34.66;36.13
76897;SHT30;65856;52.178;21.176;2023-07-16T14:28:58;34.63;36.08
76897;SHT30;65856;52.178;21.176;2023-07-16T14:31:24;34.59;36.13
76897;SHT30;65856;52.178;21.176;2023-07-16T14:33:49;34.51;36.46
76897;SHT30;65856;52.178;21.176;2023-07-16T14:36:15;34.42;36.65
76897;SHT30;65856;52.178;21.176;2023-07-16T14:38:41;34.39;36.89
76897;SHT30;65856;52.178;21.176;2023-07-16T14:41:07;34.39;36.98
76897;SHT30;65856;52.178;21.176;2023-07-16T14:43:33;34.34;36.74
76897;SHT30;65856;52.178;21.176;2023-07-16T14:45:59;34.29;36.85
76897;SHT30;65856;52.178;21.176;2023-07-16T14:48:25;34.31;36.83
76897;SHT30;65856;52.178;21.176;2023-07-16T14:50:52;34.27;36.74
76897;SHT30;65856;52.178;21.176;2023-07-16T14:53:18;34.21;37.00
76897;SHT30;65856;52.178;21.176;2023-07-16T14:55:48;34.15;37.24
76897;SHT30;65856;52.178;21.176;2023-07-16T14:58:18;34.05;37.51
76897;SHT30;65856;52.178;21.176;2023-07-16T15:00:46;33.99;37.60
76897;SHT30;65856;52.178;21.176;2023-07-16T15:03:11;33.90;37.77
76897;SHT30;65856;52.178;21.176;2023-07-16T15:05:37;33.82;38.00
76897;SHT30;65856;52.178;21.176;2023-07-16T15:08:04;33.76;38.00
76897;SHT30;65856;52.178;21.176;2023-07-16T15:10:30;33.71;38.15
76897;SHT30;65856;52.178;21.176;2023-07-16T15:12:57;33.66;38.46
76897;SHT30;65856;52.178;21.176;2023-07-16T15:15:23;33.62;38.46
76897;SHT30;65856;52.178;21.176;2023-07-16T15:17:48;33.57;38.61
76897;SHT30;65856;52.178;21.176;2023-07-16T15:20:14;33.51;38.77